Time;durP1;ratioP1;P1;durP2;ratioP2;P2;SDS_P1;SDS_P2;PMS_P1;PMS_P2;Temp;Humidity;BMP_temperature;BMP_pressure;BME280_temperature;BME280_humidity;BME280_pressure;Samples;Min_cycle;Max_cycle;Signal;HPM_P1;HPM_P2
2021/10/12 00:00:31;;;;;;;3.58;1.73;;;11.20;99.90;;;;;;6240376;23;20016;-90
2021/10/12 00:03:06;;;;;;;3.45;1.67;;;11.20;99.90;;;;;;6241997;23;20826;-90
2021/10/12 00:05:32;;;;;;;4.13;1.42;;;11.20;99.90;;;;;;6242973;23;20000;-90
2021/10/12 00:07:58;;;;;;;3.45;1.33;;;11.10;99.90;;;;;;6242475;23;20008;-91
2021/10/12 00:10:24;;;;;;;2.90;1.10;;;11.10;99.90;;;;;;6243936;23;20011;-90
2021/10/12 00:12:50;;;;;;;5.07;1.52;;;11.10;99.90;;;;;;6244501;23;20011;-90
2021/10/12 00:15:22;;;;;;;4.13;1.42;;;11.10;99.90;;;;;;6245260;23;20064;-92
2021/10/12 00:17:49;;;;;;;7.15;1.75;;;11.10;99.90;;;;;;6245195;23;20031;-91
2021/10/12 00:20:15;;;;;;;2.47;1.05;;;11.10;99.90;;;;;;6243260;23;20097;-91
2021/10/12 00:22:41;;;;;;;3.50;1.05;;;11.10;99.90;;;;;;6241166;23;20012;-90
2021/10/12 00:25:07;;;;;;;4.55;1.40;;;11.10;99.90;;;;;;6243584;23;20386;-90
2021/10/12 00:27:33;;;;;;;4.78;1.45;;;11.10;99.90;;;;;;6242599;23;20042;-90
2021/10/12 00:29:59;;;;;;;3.28;1.08;;;11.00;99.90;;;;;;6242824;23;20027;-91
2021/10/12 00:32:26;;;;;;;4.03;1.50;;;11.10;99.90;;;;;;6217468;23;20015;-90
2021/10/12 00:34:52;;;;;;;5.22;1.80;;;11.10;99.90;;;;;;6242167;23;20012;-90
2021/10/12 00:37:18;;;;;;;4.00;1.23;;;11.00;99.90;;;;;;6241603;23;20424;-90
2021/10/12 00:39:43;;;;;;;4.90;1.60;;;11.00;99.90;;;;;;6242093;23;20335;-91
2021/10/12 00:42:10;;;;;;;4.78;1.60;;;11.00;99.90;;;;;;6241844;23;20008;-91
2021/10/12 00:44:35;;;;;;;7.40;1.58;;;10.90;99.90;;;;;;6244063;23;20035;-92
2021/10/12 00:47:02;;;;;;;5.30;1.58;;;10.90;99.90;;;;;;6243546;23;20008;-91
2021/10/12 00:49:28;;;;;;;5.40;1.35;;;10.90;99.90;;;;;;6243641;23;20008;-90
2021/10/12 00:51:54;;;;;;;6.47;1.65;;;10.90;99.90;;;;;;6244020;23;20100;-90
2021/10/12 00:54:21;;;;;;;5.80;1.58;;;10.90;99.90;;;;;;6244800;23;20027;-91
2021/10/12 00:56:52;;;;;;;4.95;1.30;;;10.80;99.90;;;;;;6245339;23;20012;-89
2021/10/12 00:59:19;;;;;;;6.03;1.50;;;10.90;99.90;;;;;;6243734;23;20016;-92
2021/10/12 01:01:44;;;;;;;4.63;1.70;;;10.90;99.90;;;;;;6244091;23;20008;-92
2021/10/12 01:04:11;;;;;;;6.68;1.73;;;10.80;99.90;;;;;;6244899;23;20360;-91
2021/10/12 01:06:37;;;;;;;6.28;1.98;;;10.90;99.90;;;;;;6248965;23;20032;-91
2021/10/12 01:09:06;;;;;;;3.95;1.48;;;10.80;99.90;;;;;;6248816;23;20004;-91
2021/10/12 01:11:37;;;;;;;5.18;1.85;;;10.80;99.90;;;;;;6247413;23;20079;-90
2021/10/12 01:14:03;;;;;;;5.20;1.92;;;10.80;99.90;;;;;;6247429;23;20001;-90
2021/10/12 01:16:30;;;;;;;5.90;1.90;;;10.80;99.90;;;;;;6247291;23;20023;-90
2021/10/12 01:19:01;;;;;;;3.95;2.10;;;10.80;99.90;;;;;;6248404;23;20000;-90
2021/10/12 01:21:30;;;;;;;4.45;1.60;;;10.80;99.90;;;;;;6248356;23;20004;-90
2021/10/12 01:23:57;;;;;;;4.70;1.50;;;10.80;99.90;;;;;;6248620;23;20007;-91
2021/10/12 01:26:24;;;;;;;4.72;1.73;;;10.80;99.90;;;;;;6247470;23;20027;-90
2021/10/12 01:28:49;;;;;;;3.13;1.73;;;10.80;99.90;;;;;;6245701;23;20004;-92
2021/10/12 01:31:23;;;;;;;3.47;1.55;;;10.80;99.90;;;;;;6246697;23;20323;-91
2021/10/12 01:33:49;;;;;;;8.70;1.92;;;10.80;99.90;;;;;;6246783;23;20008;-91
2021/10/12 01:36:15;;;;;;;5.10;2.15;;;10.80;99.90;;;;;;6246593;23;20004;-91
2021/10/12 01:38:42;;;;;;;6.85;2.20;;;10.80;99.90;;;;;;6246975;23;20023;-91
2021/10/12 01:41:09;;;;;;;4.28;2.35;;;10.80;99.90;;;;;;6246773;23;20004;-92
2021/10/12 01:43:35;;;;;;;4.95;2.55;;;10.70;99.90;;;;;;6246737;23;20003;-90
2021/10/12 01:46:03;;;;;;;6.80;2.38;;;10.70;99.90;;;;;;6246963;23;20455;-91
2021/10/12 01:48:29;;;;;;;6.13;2.15;;;10.70;99.90;;;;;;6247669;23;20008;-90
2021/10/12 01:50:55;;;;;;;4.75;2.30;;;10.70;99.90;;;;;;6246176;23;20042;-90
2021/10/12 01:53:21;;;;;;;8.05;2.85;;;10.70;99.90;;;;;;6248034;23;20439;-90
2021/10/12 01:55:47;;;;;;;10.32;3.17;;;10.70;99.90;;;;;;6246618;23;20004;-90
2021/10/12 01:58:13;;;;;;;8.20;3.03;;;10.70;99.90;;;;;;6246183;23;20008;-90
2021/10/12 02:00:38;;;;;;;5.35;2.42;;;10.70;99.90;;;;;;6251004;22;20332;-91
2021/10/12 02:03:05;;;;;;;5.05;3.00;;;10.70;99.90;;;;;;6251278;22;20034;-89
2021/10/12 02:05:31;;;;;;;7.22;2.72;;;10.70;99.90;;;;;;6251434;22;20053;-90
2021/10/12 02:07:57;;;;;;;6.30;2.65;;;10.70;99.90;;;;;;6251429;22;20078;-90
2021/10/12 02:10:24;;;;;;;9.23;2.83;;;10.70;99.90;;;;;;6251007;22;20046;-89
2021/10/12 02:12:50;;;;;;;6.85;2.80;;;10.70;99.90;;;;;;6251320;22;20415;-89
2021/10/12 02:15:16;;;;;;;6.25;3.15;;;10.70;99.90;;;;;;6250428;22;20000;-89
2021/10/12 02:17:41;;;;;;;5.80;3.33;;;10.70;99.90;;;;;;6251606;22;20034;-89
2021/10/12 02:20:08;;;;;;;7.20;3.10;;;10.60;99.90;;;;;;6250389;22;20007;-90
2021/10/12 02:22:34;;;;;;;5.28;2.30;;;10.70;99.90;;;;;;6250961;22;20002;-90
2021/10/12 02:25:01;;;;;;;6.40;2.58;;;10.60;99.90;;;;;;6277755;22;20473;-90
2021/10/12 02:27:26;;;;;;;5.03;2.00;;;10.70;99.90;;;;;;6251313;22;20032;-90
2021/10/12 02:29:52;;;;;;;4.22;2.20;;;10.70;99.90;;;;;;6251927;22;20404;-89
2021/10/12 02:32:18;;;;;;;6.53;2.72;;;10.70;99.90;;;;;;6251180;22;20004;-90
2021/10/12 02:34:44;;;;;;;12.13;2.47;;;10.60;99.90;;;;;;6276366;22;20007;-90
2021/10/12 02:37:12;;;;;;;7.20;2.50;;;10.60;99.90;;;;;;6251622;22;20038;-90
2021/10/12 02:39:37;;;;;;;5.88;2.30;;;10.60;99.90;;;;;;6250504;22;20003;-89
2021/10/12 02:42:04;;;;;;;4.43;1.88;;;10.60;99.90;;;;;;6251496;22;20301;-89
2021/10/12 02:44:30;;;;;;;6.47;2.40;;;10.70;99.90;;;;;;6251367;22;19996;-89
2021/10/12 02:46:55;;;;;;;3.85;1.92;;;10.60;99.90;;;;;;6226144;22;20050;-89
2021/10/12 02:49:21;;;;;;;4.82;1.75;;;10.70;99.90;;;;;;6250681;22;20000;-90
2021/10/12 02:51:47;;;;;;;6.10;2.03;;;10.70;99.90;;;;;;6251022;22;19999;-90
2021/10/12 02:54:13;;;;;;;4.18;1.70;;;10.70;99.90;;;;;;6251194;22;20000;-90
2021/10/12 02:56:39;;;;;;;3.25;1.42;;;10.70;99.90;;;;;;6251205;22;20083;-90
2021/10/12 02:59:04;;;;;;;3.33;1.65;;;10.70;99.90;;;;;;6250599;22;20016;-89
2021/10/12 03:01:30;;;;;;;6.72;2.10;;;10.70;99.90;;;;;;6251654;22;20323;-90
2021/10/12 03:03:56;;;;;;;3.50;1.58;;;10.70;99.90;;;;;;6252274;22;20007;-90
2021/10/12 03:06:22;;;;;;;6.10;2.28;;;10.60;99.90;;;;;;6252191;22;20091;-90
2021/10/12 03:08:49;;;;;;;6.05;2.47;;;10.70;99.90;;;;;;6251830;22;20477;-90
2021/10/12 03:11:14;;;;;;;6.63;2.50;;;10.70;99.90;;;;;;6226217;22;20062;-91
2021/10/12 03:13:41;;;;;;;7.35;1.80;;;10.70;99.90;;;;;;6278144;22;20000;-90
2021/10/12 03:16:09;;;;;;;5.13;1.75;;;10.70;99.90;;;;;;6250780;22;20031;-90
2021/10/12 03:18:36;;;;;;;6.40;1.88;;;10.70;99.90;;;;;;6278225;22;20000;-90
2021/10/12 03:21:03;;;;;;;8.15;1.92;;;10.60;99.90;;;;;;6251202;22;20008;-90
2021/10/12 03:23:28;;;;;;;6.90;1.80;;;10.60;99.90;;;;;;6251267;22;20467;-89
2021/10/12 03:25:55;;;;;;;3.22;1.50;;;10.60;99.90;;;;;;6251432;22;20003;-91
2021/10/12 03:28:21;;;;;;;8.20;1.85;;;10.60;99.90;;;;;;6251403;22;20062;-90
2021/10/12 03:30:46;;;;;;;4.45;1.40;;;10.60;99.90;;;;;;6251412;22;20011;-91
2021/10/12 03:33:14;;;;;;;6.95;1.88;;;10.60;99.90;;;;;;6251015;22;20085;-90
2021/10/12 03:35:46;;;;;;;5.65;1.92;;;10.60;99.90;;;;;;6251619;22;20081;-90
2021/10/12 03:38:12;;;;;;;9.32;1.77;;;10.50;99.90;;;;;;6227221;22;20019;-89
2021/10/12 03:40:37;;;;;;;5.28;1.35;;;10.50;99.90;;;;;;6250995;22;20000;-90
2021/10/12 03:43:03;;;;;;;4.35;1.17;;;10.50;99.90;;;;;;6251502;22;20000;-91
2021/10/12 03:45:29;;;;;;;7.50;1.50;;;10.50;99.90;;;;;;6251341;22;20007;-90
2021/10/12 03:47:55;;;;;;;6.90;2.05;;;10.50;99.90;;;;;;6252204;22;20031;-90
2021/10/12 03:50:21;;;;;;;6.80;1.50;;;10.50;99.90;;;;;;6252715;22;20011;-92
2021/10/12 03:52:47;;;;;;;7.78;1.30;;;10.50;99.90;;;;;;6252851;22;20026;-90
2021/10/12 03:55:13;;;;;;;5.25;1.23;;;10.50;99.90;;;;;;6253157;22;20438;-90
2021/10/12 03:57:39;;;;;;;4.15;1.10;;;10.50;99.90;;;;;;6253242;22;20015;-90
2021/10/12 04:00:07;;;;;;;3.17;1.00;;;10.50;99.90;;;;;;6252715;22;20016;-90
2021/10/12 04:02:32;;;;;;;4.32;1.13;;;10.50;99.90;;;;;;6251707;22;20015;-91
2021/10/12 04:04:58;;;;;;;4.93;1.38;;;10.50;99.90;;;;;;6252238;22;20031;-91
2021/10/12 04:07:24;;;;;;;7.70;1.33;;;10.50;99.90;;;;;;6252391;22;20428;-91
2021/10/12 04:09:49;;;;;;;3.78;1.27;;;10.50;99.90;;;;;;6253030;22;20362;-90
2021/10/12 04:12:20;;;;;;;3.58;1.13;;;10.50;99.90;;;;;;6252823;22;20018;-90
2021/10/12 04:14:46;;;;;;;5.50;1.60;;;10.50;99.90;;;;;;6252906;22;20000;-90
2021/10/12 04:17:11;;;;;;;6.05;1.30;;;10.60;99.90;;;;;;6252707;22;20087;-89
2021/10/12 04:19:38;;;;;;;3.83;1.13;;;10.60;99.90;;;;;;6253281;22;19999;-90
2021/10/12 04:22:05;;;;;;;3.22;1.00;;;10.60;99.90;;;;;;6252943;22;20030;-90
2021/10/12 04:24:32;;;;;;;4.18;1.30;;;10.60;99.90;;;;;;6279020;22;20004;-89
2021/10/12 04:26:57;;;;;;;5.40;1.30;;;10.60;99.90;;;;;;6252387;22;20382;-90
2021/10/12 04:29:23;;;;;;;5.50;1.45;;;10.60;99.90;;;;;;6253185;22;20034;-90
2021/10/12 04:31:49;;;;;;;3.55;1.10;;;10.50;99.90;;;;;;6252657;22;20060;-90
2021/10/12 04:34:15;;;;;;;5.45;1.38;;;10.50;99.90;;;;;;6247735;22;20004;-91
2021/10/12 04:36:41;;;;;;;3.38;1.20;;;10.50;99.90;;;;;;6251298;22;20015;-90
2021/10/12 04:39:07;;;;;;;4.28;1.48;;;10.50;99.90;;;;;;6276848;22;20075;-91
2021/10/12 04:41:38;;;;;;;4.25;1.08;;;10.50;99.90;;;;;;6277385;22;20034;-91
2021/10/12 04:44:10;;;;;;;4.63;1.15;;;10.50;99.90;;;;;;6250243;22;20337;-91
2021/10/12 04:46:42;;;;;;;4.68;1.50;;;10.50;99.90;;;;;;6249870;22;20011;-91
2021/10/12 04:49:12;;;;;;;5.60;1.30;;;10.60;99.90;;;;;;6224799;22;20038;-91
2021/10/12 04:51:43;;;;;;;5.18;1.58;;;10.60;99.90;;;;;;6249208;22;20415;-91
2021/10/12 04:54:08;;;;;;;6.10;1.50;;;10.60;99.90;;;;;;6249728;22;20020;-90
2021/10/12 04:56:34;;;;;;;8.02;1.40;;;10.60;99.90;;;;;;6250115;22;20413;-91
2021/10/12 04:59:00;;;;;;;4.93;1.73;;;10.60;99.90;;;;;;6250283;22;20046;-91
2021/10/12 05:01:26;;;;;;;4.25;1.40;;;10.60;99.90;;;;;;6249823;22;20007;-90
2021/10/12 05:03:53;;;;;;;7.25;1.95;;;10.60;99.90;;;;;;6250645;22;20004;-91
2021/10/12 05:06:19;;;;;;;4.78;1.60;;;10.60;99.90;;;;;;6224338;22;20034;-91
2021/10/12 05:08:45;;;;;;;4.25;1.20;;;10.60;99.90;;;;;;6249751;22;20006;-91
2021/10/12 05:11:10;;;;;;;3.97;1.77;;;10.60;99.90;;;;;;6276529;22;20004;-91
2021/10/12 05:13:37;;;;;;;4.45;1.80;;;10.70;99.90;;;;;;6250097;22;20062;-91
2021/10/12 05:16:10;;;;;;;7.32;2.20;;;10.60;99.90;;;;;;6249816;22;20480;-92
2021/10/12 05:18:38;;;;;;;4.57;1.88;;;10.60;99.90;;;;;;6249474;22;20319;-91
2021/10/12 05:21:04;;;;;;;5.20;2.28;;;10.60;99.90;;;;;;6248955;22;20400;-90
2021/10/12 05:23:30;;;;;;;7.47;2.22;;;10.50;99.90;;;;;;6223902;22;20015;-90
2021/10/12 05:25:57;;;;;;;6.63;2.80;;;10.60;99.90;;;;;;6275954;22;20306;-90
2021/10/12 05:28:22;;;;;;;6.53;2.20;;;10.50;99.90;;;;;;6249772;22;20076;-92
2021/10/12 05:30:51;;;;;;;6.47;2.67;;;10.60;99.90;;;;;;6277726;22;20006;-92
2021/10/12 05:33:20;;;;;;;6.53;2.67;;;10.60;99.90;;;;;;6249284;22;20012;-91
2021/10/12 05:35:48;;;;;;;6.50;2.50;;;10.60;99.90;;;;;;6251103;22;20035;-90
2021/10/12 05:38:15;;;;;;;6.38;2.10;;;10.60;99.90;;;;;;6251499;22;20015;-90
2021/10/12 05:40:42;;;;;;;7.35;2.63;;;10.60;99.90;;;;;;6251898;22;20053;-91
2021/10/12 05:43:13;;;;;;;6.85;2.78;;;10.60;99.90;;;;;;6278029;22;20006;-91
2021/10/12 05:45:42;;;;;;;9.68;3.40;;;10.60;99.90;;;;;;6280409;22;20030;-90
2021/10/12 05:48:09;;;;;;;8.27;2.97;;;10.60;99.90;;;;;;6253994;22;20424;-91
2021/10/12 05:50:36;;;;;;;8.45;3.78;;;10.60;99.90;;;;;;6251554;22;20011;-91
2021/10/12 05:58:14;;;;;;;7.38;3.40;;;10.60;99.90;;;;;;6278932;22;20043;-91
2021/10/12 06:00:41;;;;;;;8.68;3.70;;;10.60;99.90;;;;;;6278272;22;20019;-92
2021/10/12 06:03:15;;;;;;;10.40;5.05;;;10.60;99.90;;;;;;6251703;22;19996;-91
2021/10/12 06:05:40;;;;;;;7.38;4.25;;;10.70;99.90;;;;;;6226698;22;20012;-91
2021/10/12 06:08:10;;;;;;;7.40;3.63;;;10.70;99.90;;;;;;6252326;22;20030;-91
2021/10/12 06:10:38;;;;;;;5.20;3.08;;;10.70;99.90;;;;;;6249219;22;20018;-91
2021/10/12 06:13:09;;;;;;;8.73;3.55;;;10.80;99.90;;;;;;6251935;22;20034;-91
2021/10/12 06:15:55;;;;;;;7.40;3.92;;;10.70;99.90;;;;;;6273615;22;20366;-91
2021/10/12 06:18:22;;;;;;;10.27;4.63;;;10.80;99.90;;;;;;6250846;22;20102;-91
2021/10/12 06:20:54;;;;;;;8.18;4.38;;;10.80;99.90;;;;;;6251381;22;20046;-91
2021/10/12 06:23:22;;;;;;;11.38;5.57;;;10.80;99.90;;;;;;6252032;22;20011;-91
2021/10/12 06:26:04;;;;;;;10.02;5.82;;;10.90;99.90;;;;;;6275875;22;20435;-91
2021/10/12 06:28:30;;;;;;;8.55;5.82;;;10.80;99.90;;;;;;6249829;22;20011;-91
2021/10/12 06:30:57;;;;;;;8.50;6.18;;;10.90;99.90;;;;;;6250877;22;20087;-92
2021/10/12 06:33:28;;;;;;;8.48;6.38;;;10.90;99.90;;;;;;6251350;22;20195;-91
2021/10/12 06:35:57;;;;;;;10.27;7.22;;;11.00;99.90;;;;;;6250628;22;20083;-92
2021/10/12 06:38:24;;;;;;;11.52;7.30;;;10.90;99.90;;;;;;6250794;22;20015;-91
2021/10/12 06:40:49;;;;;;;10.55;7.30;;;11.00;99.90;;;;;;6250258;22;20086;-92
2021/10/12 06:43:16;;;;;;;13.68;8.15;;;11.00;99.90;;;;;;6250577;22;20031;-92
2021/10/12 06:45:42;;;;;;;12.57;9.30;;;11.00;99.90;;;;;;6250435;22;20122;-92
2021/10/12 06:48:08;;;;;;;12.73;9.00;;;11.00;99.90;;;;;;6250470;22;20061;-91
2021/10/12 06:50:36;;;;;;;12.23;9.07;;;11.00;99.90;;;;;;6277536;22;20376;-91
2021/10/12 06:53:06;;;;;;;11.50;8.45;;;11.10;99.90;;;;;;6277168;22;20034;-91
2021/10/12 06:55:33;;;;;;;10.00;7.82;;;11.10;99.90;;;;;;6251467;22;20038;-90
2021/10/12 06:57:59;;;;;;;11.15;7.00;;;11.10;99.90;;;;;;6250568;22;20007;-91
2021/10/12 07:00:25;;;;;;;11.88;7.85;;;11.10;99.90;;;;;;6219741;23;20027;-91
2021/10/12 07:02:51;;;;;;;12.07;7.22;;;11.20;99.90;;;;;;6246261;23;20001;-91
2021/10/12 07:05:17;;;;;;;12.10;7.50;;;11.20;99.90;;;;;;6246606;23;20163;-91
2021/10/12 07:07:46;;;;;;;10.63;6.68;;;11.30;99.90;;;;;;6246129;23;20087;-91
2021/10/12 07:10:16;;;;;;;7.80;5.88;;;11.30;99.90;;;;;;6246522;23;20007;-92
2021/10/12 07:12:43;;;;;;;14.30;8.23;;;11.40;99.90;;;;;;6246975;23;20036;-91
2021/10/12 07:15:11;;;;;;;10.30;6.90;;;11.40;99.90;;;;;;6246196;23;20023;-92
2021/10/12 07:17:38;;;;;;;12.23;7.50;;;11.40;99.90;;;;;;6247395;23;20281;-90
2021/10/12 07:20:05;;;;;;;9.73;6.40;;;11.50;99.90;;;;;;6246780;23;20048;-90
2021/10/12 07:22:31;;;;;;;9.45;6.45;;;11.40;99.90;;;;;;6247207;23;20490;-91
2021/10/12 07:24:58;;;;;;;8.63;5.90;;;11.50;99.90;;;;;;6247930;23;20331;-90
2021/10/12 07:27:24;;;;;;;16.38;9.35;;;11.60;99.90;;;;;;6247931;23;20016;-90
2021/10/12 07:29:53;;;;;;;12.02;8.57;;;11.60;99.90;;;;;;6248257;23;20032;-90
2021/10/12 07:32:22;;;;;;;12.02;7.85;;;11.60;99.90;;;;;;6247895;23;20032;-91
2021/10/12 07:34:53;;;;;;;10.30;7.43;;;11.60;99.90;;;;;;6247224;23;20161;-89
2021/10/12 07:37:22;;;;;;;12.48;8.15;;;11.60;99.90;;;;;;6246895;23;20155;-89
2021/10/12 07:39:47;;;;;;;14.60;10.13;;;11.60;99.90;;;;;;6246690;23;20316;-89
2021/10/12 07:42:13;;;;;;;11.93;8.85;;;11.60;99.90;;;;;;6248796;22;20000;-89
2021/10/12 07:44:41;;;;;;;13.20;9.52;;;11.60;99.90;;;;;;6248970;23;20000;-89
2021/10/12 07:47:08;;;;;;;12.60;7.53;;;11.60;99.90;;;;;;6248102;23;20004;-90
2021/10/12 07:49:37;;;;;;;9.68;7.15;;;11.70;99.90;;;;;;6248815;23;19996;-89
2021/10/12 07:52:07;;;;;;;11.45;8.40;;;11.70;99.90;;;;;;6247529;23;20004;-89
2021/10/12 07:54:41;;;;;;;11.48;8.00;;;11.70;99.90;;;;;;6247604;23;19996;-88
2021/10/12 07:57:07;;;;;;;11.38;7.88;;;11.70;99.90;;;;;;6248044;23;20016;-89
2021/10/12 07:59:33;;;;;;;11.32;8.07;;;11.70;99.90;;;;;;6248419;22;20058;-88
2021/10/12 08:02:01;;;;;;;14.50;8.93;;;11.70;99.90;;;;;;6250902;22;20000;-88
2021/10/12 08:04:27;;;;;;;12.68;8.25;;;11.70;99.90;;;;;;6249756;22;20100;-89
2021/10/12 08:06:53;;;;;;;11.02;7.13;;;11.70;99.90;;;;;;6250612;22;20545;-88
2021/10/12 08:09:19;;;;;;;12.57;7.55;;;11.70;99.90;;;;;;6250138;22;20007;-88
2021/10/12 08:11:45;;;;;;;9.00;8.02;;;11.70;99.90;;;;;;6250290;22;20011;-88
2021/10/12 08:14:15;;;;;;;10.90;7.63;;;11.80;99.90;;;;;;6250555;22;20004;-88
2021/10/12 08:16:44;;;;;;;9.38;6.78;;;11.80;99.90;;;;;;6249996;22;20039;-89
2021/10/12 08:19:10;;;;;;;12.65;7.70;;;11.80;99.90;;;;;;6250742;22;20016;-88
2021/10/12 08:21:36;;;;;;;9.93;7.28;;;11.80;99.90;;;;;;6250125;22;19999;-89
2021/10/12 08:24:05;;;;;;;10.80;7.53;;;11.90;99.90;;;;;;6277796;22;20006;-89
2021/10/12 08:26:31;;;;;;;9.40;6.70;;;11.90;99.90;;;;;;6250381;22;20004;-88
2021/10/12 08:28:57;;;;;;;11.23;8.27;;;11.90;99.90;;;;;;6277677;22;20003;-88
2021/10/12 08:31:24;;;;;;;8.13;6.78;;;11.90;99.90;;;;;;6277476;22;19999;-88
2021/10/12 08:33:50;;;;;;;9.15;7.18;;;11.90;99.90;;;;;;6251325;22;20004;-88
2021/10/12 08:36:25;;;;;;;12.55;9.20;;;11.90;99.90;;;;;;6278103;22;20007;-89
2021/10/12 08:38:55;;;;;;;10.18;7.43;;;11.90;99.90;;;;;;6250129;22;20027;-88
2021/10/12 08:41:27;;;;;;;9.30;6.93;;;12.00;99.90;;;;;;6251294;22;20436;-88
2021/10/12 08:43:55;;;;;;;9.43;6.75;;;12.00;99.90;;;;;;6250566;22;20008;-88
2021/10/12 08:46:26;;;;;;;7.97;6.22;;;12.00;99.90;;;;;;6278363;22;20022;-88
2021/10/12 08:48:57;;;;;;;11.65;7.78;;;12.00;99.90;;;;;;6251318;22;20011;-88
2021/10/12 08:51:23;;;;;;;13.43;8.80;;;11.90;99.90;;;;;;6251129;22;20023;-88
2021/10/12 08:53:50;;;;;;;11.82;8.07;;;11.90;99.90;;;;;;6250522;22;20000;-88
2021/10/12 08:56:16;;;;;;;11.05;7.32;;;11.90;99.90;;;;;;6250644;22;19999;-88
2021/10/12 08:58:42;;;;;;;11.80;8.00;;;11.90;99.90;;;;;;6251114;22;20012;-88
2021/10/12 09:01:10;;;;;;;11.57;7.13;;;11.90;99.90;;;;;;6225184;22;20023;-88
2021/10/12 09:06:12;;;;;;;13.10;7.53;;;11.90;99.90;;;;;;6276568;22;20006;-89
2021/10/12 09:08:40;;;;;;;10.50;7.22;;;12.00;99.90;;;;;;6249193;22;20098;-88
2021/10/12 09:11:23;;;;;;;8.30;6.75;;;12.00;99.90;;;;;;6249683;22;20008;-88
2021/10/12 09:14:01;;;;;;;8.68;6.10;;;12.10;99.90;;;;;;6250219;22;20038;-88
2021/10/12 09:16:34;;;;;;;8.30;5.25;;;12.10;99.90;;;;;;6249358;22;20049;-88
2021/10/12 09:19:17;;;;;;;7.70;5.82;;;12.10;99.90;;;;;;6273362;22;20015;-88
2021/10/12 09:21:50;;;;;;;8.43;6.53;;;12.10;99.90;;;;;;6250212;22;20014;-89
2021/10/12 09:24:23;;;;;;;10.13;6.72;;;12.10;99.90;;;;;;6249236;22;20034;-89
2021/10/12 09:27:01;;;;;;;8.48;6.38;;;12.10;99.90;;;;;;6275638;22;20085;-89
2021/10/12 09:29:39;;;;;;;9.20;7.20;;;12.10;99.90;;;;;;6250255;22;20060;-89
2021/10/12 09:32:08;;;;;;;10.98;7.32;;;12.10;99.90;;;;;;6248824;22;20006;-88
2021/10/12 09:34:35;;;;;;;12.15;7.03;;;12.20;99.90;;;;;;6248982;22;20499;-88
2021/10/12 09:37:03;;;;;;;10.02;7.50;;;12.30;99.90;;;;;;6248560;22;20014;-88
2021/10/12 09:39:39;;;;;;;9.73;7.25;;;12.40;99.90;;;;;;6249489;22;20006;-88
2021/10/12 09:42:08;;;;;;;9.02;7.07;;;12.50;99.90;;;;;;6249418;22;20004;-88
2021/10/12 09:44:35;;;;;;;9.95;7.82;;;12.60;99.90;;;;;;6248875;22;20000;-88
2021/10/12 09:47:14;;;;;;;11.45;8.68;;;12.70;99.90;;;;;;6248829;22;20004;-88
2021/10/12 09:49:42;;;;;;;12.77;8.90;;;12.70;99.90;;;;;;6249024;22;20466;-88
2021/10/12 09:52:17;;;;;;;12.90;9.00;;;12.80;99.90;;;;;;6249218;22;20320;-88
2021/10/12 09:54:52;;;;;;;10.98;7.95;;;12.90;99.90;;;;;;6249612;22;20007;-88
2021/10/12 09:57:23;;;;;;;9.55;7.40;;;13.00;99.90;;;;;;6248205;22;20012;-88
2021/10/12 09:59:50;;;;;;;11.73;8.07;;;13.20;99.90;;;;;;6277403;22;20626;-89
2021/10/12 10:02:24;;;;;;;11.25;7.10;;;13.60;99.90;;;;;;6276223;22;20004;-89
2021/10/12 10:04:52;;;;;;;8.68;6.18;;;14.50;99.90;;;;;;6249256;22;20010;-88
2021/10/12 10:07:34;;;;;;;8.02;4.70;;;15.30;99.90;;;;;;6249207;22;20446;-89
2021/10/12 10:10:05;;;;;;;6.22;3.90;;;16.50;99.90;;;;;;6250041;22;20004;-90
2021/10/12 10:12:34;;;;;;;5.25;2.35;;;17.40;99.90;;;;;;6249818;22;20004;-91
2021/10/12 10:15:03;;;;;;;5.85;1.90;;;18.20;99.90;;;;;;6251108;22;20004;-90
2021/10/12 10:17:29;;;;;;;5.07;1.65;;;17.90;99.90;;;;;;6250813;22;20014;-90
2021/10/12 10:19:57;;;;;;;3.60;1.70;;;17.60;99.90;;;;;;6248786;22;20000;-90
2021/10/12 10:22:47;;;;;;;2.83;1.30;;;18.10;99.90;;;;;;6276584;22;20050;-89
2021/10/12 10:25:30;;;;;;;2.83;1.20;;;18.20;99.90;;;;;;6249122;22;20035;-90
2021/10/12 10:28:19;;;;;;;3.97;1.70;;;17.70;99.90;;;;;;6276774;22;20008;-90
2021/10/12 10:31:04;;;;;;;2.63;1.23;;;17.00;99.90;;;;;;6247783;22;20007;-90
2021/10/12 10:33:37;;;;;;;2.97;1.52;;;16.50;99.90;;;;;;6248728;22;19999;-91
2021/10/12 10:36:04;;;;;;;6.03;1.40;;;16.00;99.90;;;;;;6248868;22;20430;-90
2021/10/12 10:38:42;;;;;;;4.10;1.25;;;15.60;99.90;;;;;;6249519;22;20016;-90
2021/10/12 10:41:18;;;;;;;2.95;1.25;;;15.30;99.90;;;;;;6248870;22;20030;-91
2021/10/12 10:43:54;;;;;;;2.90;1.05;;;15.20;99.90;;;;;;6249417;22;20007;-91
2021/10/12 10:46:35;;;;;;;2.15;1.10;;;15.00;99.90;;;;;;6249586;22;20007;-89
2021/10/12 10:49:17;;;;;;;4.60;1.23;;;14.80;99.90;;;;;;6249321;22;20000;-89
2021/10/12 10:51:51;;;;;;;2.55;0.98;;;14.60;99.90;;;;;;6249531;22;20000;-90
2021/10/12 10:54:39;;;;;;;2.65;1.15;;;14.30;99.90;;;;;;6251598;22;20036;-90
2021/10/12 10:57:25;;;;;;;2.08;0.90;;;14.10;99.90;;;;;;6255100;22;20008;-89
2021/10/12 11:00:26;;;;;;;7.57;1.98;;;14.10;99.90;;;;;;6244657;22;20098;-89
2021/10/12 11:02:56;;;;;;;2.88;1.13;;;14.30;99.90;;;;;;6246008;22;20007;-90
2021/10/12 11:05:51;;;;;;;2.55;1.20;;;14.30;99.90;;;;;;6276777;22;20102;-90
2021/10/12 11:08:41;;;;;;;1.90;0.82;;;14.40;99.90;;;;;;6277512;22;20011;-88
2021/10/12 11:11:09;;;;;;;3.58;1.20;;;14.30;99.90;;;;;;6249322;22;20003;-91
2021/10/12 11:13:42;;;;;;;1.90;0.85;;;14.30;99.90;;;;;;6249260;22;20012;-89
2021/10/12 11:16:17;;;;;;;1.98;0.60;;;14.40;99.90;;;;;;6248721;22;20327;-90
2021/10/12 11:18:47;;;;;;;1.83;0.75;;;15.00;99.90;;;;;;6246083;22;20011;-89
2021/10/12 11:21:17;;;;;;;3.60;0.93;;;15.70;99.90;;;;;;6248939;22;20000;-89
2021/10/12 11:23:50;;;;;;;2.45;0.60;;;16.00;99.90;;;;;;6276574;22;20004;-90
2021/10/12 11:26:20;;;;;;;1.60;0.52;;;16.10;99.90;;;;;;6275917;22;20030;-89
2021/10/12 11:28:52;;;;;;;1.30;0.50;;;16.00;99.90;;;;;;6248439;22;20008;-91
2021/10/12 11:31:23;;;;;;;2.72;0.70;;;16.10;99.90;;;;;;6248733;22;20415;-90
2021/10/12 11:33:58;;;;;;;1.27;0.60;;;16.60;99.90;;;;;;6249188;22;20091;-90
2021/10/12 11:36:29;;;;;;;1.75;0.50;;;16.90;99.90;;;;;;6250380;22;20010;-90
2021/10/12 11:38:57;;;;;;;2.17;0.57;;;17.00;99.90;;;;;;6249367;22;20019;-89
2021/10/12 11:41:41;;;;;;;1.90;0.70;;;16.80;99.90;;;;;;6248908;22;20090;-91
2021/10/12 11:44:19;;;;;;;2.10;0.60;;;17.10;99.90;;;;;;6249761;22;20014;-90
2021/10/12 11:46:51;;;;;;;1.63;0.50;;;17.40;99.90;;;;;;6249757;22;20007;-90
2021/10/12 11:49:21;;;;;;;1.75;0.50;;;17.50;99.90;;;;;;6248716;22;20004;-92
2021/10/12 11:51:48;;;;;;;1.17;0.50;;;17.60;99.90;;;;;;6249133;22;20039;-89
2021/10/12 11:54:21;;;;;;;2.17;0.30;;;17.80;99.90;;;;;;6249832;22;20004;-87
2021/10/12 11:56:47;;;;;;;0.60;0.20;;;17.50;99.90;;;;;;6249538;22;20007;-91
2021/10/12 11:59:15;;;;;;;1.33;0.30;;;16.80;99.90;;;;;;6276528;22;20416;-91
2021/10/12 12:01:47;;;;;;;1.98;0.40;;;16.20;99.90;;;;;;6242574;23;20039;-91
2021/10/12 12:04:34;;;;;;;1.30;0.35;;;15.90;99.90;;;;;;6242730;23;20003;-91
2021/10/12 12:07:05;;;;;;;1.55;0.35;;;15.90;99.90;;;;;;6245000;23;20009;-90
2021/10/12 12:09:33;;;;;;;0.20;0.20;;;15.90;99.90;;;;;;6247012;23;20012;-89
2021/10/12 12:12:06;;;;;;;0.60;0.20;;;16.30;99.90;;;;;;6247605;23;20302;-91
2021/10/12 12:14:34;;;;;;;1.05;0.30;;;17.20;99.90;;;;;;6246468;23;20007;-90
2021/10/12 12:17:08;;;;;;;0.95;0.30;;;18.30;99.90;;;;;;6246538;23;20008;-89
2021/10/12 12:19:40;;;;;;;;;;;18.40;99.90;;;;;;6247501;23;20028;-90
2021/10/12 12:22:30;;;;;;;1.05;0.30;;;18.20;99.90;;;;;;6248023;22;19927;-89
2021/10/12 12:25:11;;;;;;;0.57;0.40;;;18.00;99.90;;;;;;6246094;23;20008;-88
2021/10/12 12:27:59;;;;;;;1.90;0.50;;;17.90;99.90;;;;;;6245261;23;20023;-90
2021/10/12 12:30:41;;;;;;;1.95;0.40;;;17.90;99.90;;;;;;6246052;23;20008;-91
2021/10/12 12:33:08;;;;;;;2.55;0.30;;;17.80;99.90;;;;;;6242104;23;20008;-91
2021/10/12 12:35:42;;;;;;;1.17;0.30;;;17.50;99.90;;;;;;6238449;23;20096;-90
2021/10/12 12:38:10;;;;;;;0.65;0.20;;;17.20;99.90;;;;;;6240853;23;20420;-92
2021/10/12 12:40:47;;;;;;;0.50;0.22;;;16.90;99.90;;;;;;6241243;23;20095;-90
2021/10/12 12:43:42;;;;;;;2.22;0.30;;;17.40;99.90;;;;;;6242002;23;20018;-91
2021/10/12 12:46:16;;;;;;;1.23;0.30;;;17.80;99.90;;;;;;6240172;23;20012;-93
2021/10/12 12:49:09;;;;;;;1.85;0.30;;;18.20;99.90;;;;;;6241611;23;20332;-91
2021/10/12 12:51:46;;;;;;;1.90;0.40;;;17.70;99.90;;;;;;6241169;23;20012;-92
2021/10/12 12:54:35;;;;;;;1.38;0.30;;;17.10;99.90;;;;;;6240629;23;20015;-92
2021/10/12 12:57:20;;;;;;;1.55;0.32;;;16.60;99.90;;;;;;6238339;23;20500;-91
2021/10/12 13:00:01;;;;;;;1.88;0.43;;;16.20;99.90;;;;;;6243538;22;20324;-92
2021/10/12 13:02:29;;;;;;;1.73;0.45;;;15.70;99.90;;;;;;6245112;22;20015;-92
2021/10/12 13:05:01;;;;;;;2.25;0.50;;;15.40;99.90;;;;;;6272406;22;20031;-92